Impacts METAR Board
IDs:

KDEN - Denver Intl, CO, US

Updated at: 0100 UTC 25 Mar 2019
Potential Impact None Slight Moderate High
Time 24/13Z 24/14Z 24/15Z 24/16Z 24/17Z 24/18Z 24/19Z 24/20Z 24/21Z 24/22Z 24/23Z 25/00Z 25/01Z
Temp28 32 41 45 49 51 53 54 56 54 53 50 42
Dewpt24 27 27 25 31 30 27 26 29 28 29 33 39
Altim30.05 30.07 30.09 30.10 30.08 30.09 30.08 30.06 30.05 30.06 30.07 30.11 30.12
VIS10 10 10 10 10 10 10 10 10 10 10 10 10
CIG-- -- -- -- -- -- -- -- -- 70 70 60 40
CoverFEWFEWFEWFEWFEWFEWSCTSCTSCTBKNBKNBKNBKN
FltCatVFRVFRVFRVFRVFRVFRVFRVFRVFRVFRVFRVFRVFR
WX-----------------------RA-RA
WDir130150010011012012080706090190120
WSpd5 6 0 4 11 9 9 7 9 9 8 16 6
WGst-- -- -- -- -- 16 -- 17 -- -- -- 21 --
Raw hourly METARs
KDEN 241253Z 13005KT 10SM FEW080 FEW200 M02/M04 A3005 RMK AO2 SLP177 T10221044
KDEN 241353Z 15006KT 10SM FEW080 FEW110 FEW200 00/M03 A3007 RMK AO2 SLP182 T00001028
KDEN 241453Z 00000KT 10SM FEW080 FEW110 FEW200 05/M03 A3009 RMK AO2 SLP182 T00501028 51018
KDEN 241553Z 10004KT 10SM FEW080 FEW120 FEW200 07/M04 A3010 RMK AO2 SLP179 T00721039
KDEN 241653Z 11011KT 10SM FEW080 FEW130 FEW200 09/M01 A3008 RMK AO2 SLP173 T00941006
KDEN 241753Z 12009G16KT 10SM FEW080 FEW130 11/M01 A3009 RMK AO2 SLP174 T01061011 10106 21039 50000
KDEN 241853Z 12009KT 10SM FEW080 SCT130 12/M03 A3008 RMK AO2 SLP167 T01171028
KDEN 241953Z 08007G17KT 10SM FEW080 SCT130 12/M03 A3006 RMK AO2 SLP163 T01221033
KDEN 242053Z 07009KT 10SM FEW090 SCT130 SCT200 13/M02 A3005 RMK AO2 SLP156 VIRGA DSNT W T01331017 58010
KDEN 242153Z 06009KT 10SM BKN070 BKN130 BKN200 12/M02 A3006 RMK AO2 SLP163 VIRGA SW-W T01221022
KDEN 242253Z 09008KT 10SM BKN070 BKN085 BKN130 12/M02 A3007 RMK AO2 SLP165 VIRGA SW-NW T01171017
KDEN 242353Z 19016G21KT 10SM -RA BKN060 BKN100 BKN220 10/01 A3011 RMK AO2 RAB51 SLP181 P0000 60000 T01000006 10139 20100 53016
KDEN 250053Z 12006KT 10SM -RA FEW013 SCT025 BKN040 BKN130 06/04 A3012 RMK AO2 WSHFT 0020 SLP204 P0010 T00560039



Page loaded:  01:12 UTC  |   06:12 PM Pacific  |   07:12 PM Mountain  |   08:12 PM Central  |   09:12 PM Eastern

 

ADVISORIES

FORECASTS

FORECASTS

OBSERVATIONS

USER TOOLS

ABOUT US